ITY9948 LIRF-LFOT
Flight info
| Callsign | ITY9948 |
|---|---|
| Flight time | 1h 43m |
| Altitude | 36000 |
| Route | NEMBO DCT LAGEN DCT TOP DCT IXUSA DCT RONOP DCT GIGUS DCT TIS DCT VALKU DCT LARON DCT GUSON R66 BALAN R10 SOPIL |
| Aircraft | A320/M-SDE3FGHIRWY/LB1 |
Departure
| Time | 2026-05-07 12:55 |
|---|---|
| Airport | Rome–Fiumicino Leonardo da Vinci International Airport (LIRF) |
Arrival
| Time | 2026-05-07 14:38 |
|---|---|
| Airport | Tours Val de Loire Airport (LFOT) |
| Time | Latitude | Longitude | Altitude | Speed | Heading |
|---|---|---|---|---|---|
| 2026-05-07 12:31 | 41.79618 | 12.25943 | 14 ft | 0 kts | 295° |
| 2026-05-07 12:43 | 41.79614 | 12.25954 | 14 ft | 2 kts | 295° |
| 2026-05-07 12:43 | 41.79607 | 12.25975 | 17 ft | 2 kts | 295° |
| 2026-05-07 12:43 | 41.79600 | 12.25996 | 15 ft | 3 kts | 307° |
| 2026-05-07 12:44 | 41.79590 | 12.26010 | 16 ft | 0 kts | 335° |
| 2026-05-07 12:46 | 41.79591 | 12.26010 | 16 ft | 1 kts | 335° |
| 2026-05-07 12:47 | 41.79630 | 12.26022 | 14 ft | 8 kts | 25° |
| 2026-05-07 12:47 | 41.79679 | 12.26057 | 15 ft | 9 kts | 28° |
| 2026-05-07 12:47 | 41.79732 | 12.26092 | 14 ft | 8 kts | 13° |
| 2026-05-07 12:47 | 41.79773 | 12.26122 | 16 ft | 6 kts | 27° |
| 2026-05-07 12:48 | 41.79836 | 12.26087 | 14 ft | 14 kts | 313° |
| 2026-05-07 12:48 | 41.79878 | 12.25965 | 14 ft | 15 kts | 293° |
| 2026-05-07 12:48 | 41.79947 | 12.25874 | 14 ft | 16 kts | 1° |
| 2026-05-07 12:48 | 41.80042 | 12.25933 | 14 ft | 15 kts | 25° |
| 2026-05-07 12:49 | 41.80133 | 12.25990 | 14 ft | 14 kts | 25° |
| 2026-05-07 12:49 | 41.80218 | 12.26043 | 14 ft | 13 kts | 24° |
| 2026-05-07 12:49 | 41.80293 | 12.26084 | 14 ft | 11 kts | 22° |
| 2026-05-07 12:49 | 41.80362 | 12.26122 | 16 ft | 10 kts | 22° |
| 2026-05-07 12:50 | 41.80415 | 12.26151 | 15 ft | 7 kts | 22° |
| 2026-05-07 12:50 | 41.80452 | 12.26170 | 16 ft | 6 kts | 17° |
| 2026-05-07 12:50 | 41.80504 | 12.26206 | 18 ft | 9 kts | 45° |
| 2026-05-07 12:50 | 41.80534 | 12.26275 | 16 ft | 8 kts | 66° |
| 2026-05-07 12:51 | 41.80554 | 12.26338 | 17 ft | 7 kts | 66° |
| 2026-05-07 12:51 | 41.80582 | 12.26424 | 16 ft | 11 kts | 67° |
| 2026-05-07 12:51 | 41.80607 | 12.26519 | 17 ft | 10 kts | 71° |
| 2026-05-07 12:51 | 41.80628 | 12.26602 | 15 ft | 9 kts | 71° |
| 2026-05-07 12:52 | 41.80646 | 12.26673 | 15 ft | 8 kts | 71° |
| 2026-05-07 12:52 | 41.80662 | 12.26738 | 17 ft | 7 kts | 72° |
| 2026-05-07 12:52 | 41.80680 | 12.26813 | 15 ft | 9 kts | 72° |
| 2026-05-07 12:52 | 41.80700 | 12.26891 | 13 ft | 9 kts | 71° |
| 2026-05-07 12:53 | 41.80720 | 12.26972 | 14 ft | 10 kts | 71° |
| 2026-05-07 12:53 | 41.80758 | 12.27027 | 13 ft | 11 kts | 30° |
| 2026-05-07 12:53 | 41.80858 | 12.27013 | 14 ft | 16 kts | 346° |
| 2026-05-07 12:53 | 41.80939 | 12.26939 | 13 ft | 14 kts | 279° |
| 2026-05-07 12:54 | 41.80907 | 12.26737 | 13 ft | 49 kts | 250° |
| 2026-05-07 12:54 | 41.80712 | 12.26018 | 18 ft | 112 kts | 249° |
| 2026-05-07 12:54 | 41.80377 | 12.24810 | 18 ft | 162 kts | 250° |
| 2026-05-07 12:54 | 41.79987 | 12.23326 | 441 ft | 173 kts | 252° |
| 2026-05-07 12:55 | 41.79664 | 12.21736 | 1077 ft | 177 kts | 254° |
| 2026-05-07 12:55 | 41.79408 | 12.20087 | 1538 ft | 193 kts | 265° |
| 2026-05-07 12:55 | 41.79304 | 12.18180 | 1855 ft | 216 kts | 267° |
| 2026-05-07 12:55 | 41.79222 | 12.16052 | 2220 ft | 240 kts | 268° |
| 2026-05-07 12:56 | 41.79148 | 12.13706 | 2682 ft | 260 kts | 268° |
| 2026-05-07 12:56 | 41.79079 | 12.11244 | 3457 ft | 267 kts | 268° |
| 2026-05-07 12:56 | 41.79017 | 12.08745 | 4351 ft | 269 kts | 269° |
| 2026-05-07 12:56 | 41.79059 | 12.06261 | 5223 ft | 272 kts | 279° |
| 2026-05-07 12:57 | 41.79702 | 12.03872 | 6077 ft | 274 kts | 297° |
| 2026-05-07 12:57 | 41.80600 | 12.01606 | 7021 ft | 276 kts | 297° |
| 2026-05-07 12:57 | 41.81203 | 12.00101 | 7564 ft | 277 kts | 297° |
| 2026-05-07 12:57 | 41.82123 | 11.97812 | 8397 ft | 279 kts | 297° |
| 2026-05-07 12:58 | 41.83350 | 11.94751 | 9482 ft | 283 kts | 297° |
| 2026-05-07 12:58 | 41.84284 | 11.92412 | 10261 ft | 286 kts | 296° |
| 2026-05-07 12:58 | 41.84921 | 11.90815 | 10501 ft | 299 kts | 296° |
| 2026-05-07 12:58 | 41.85939 | 11.88251 | 10681 ft | 323 kts | 296° |
| 2026-05-07 12:59 | 41.87017 | 11.85532 | 11122 ft | 335 kts | 296° |
| 2026-05-07 12:59 | 41.88123 | 11.82748 | 11786 ft | 339 kts | 296° |
| 2026-05-07 12:59 | 41.89234 | 11.79947 | 12500 ft | 342 kts | 296° |
| 2026-05-07 12:59 | 41.90358 | 11.77112 | 13206 ft | 345 kts | 295° |
| 2026-05-07 13:00 | 41.91480 | 11.74281 | 13882 ft | 348 kts | 295° |
| 2026-05-07 13:00 | 41.92622 | 11.71398 | 14511 ft | 350 kts | 295° |
| 2026-05-07 13:00 | 41.93771 | 11.68498 | 15151 ft | 352 kts | 295° |
| 2026-05-07 13:00 | 41.94926 | 11.65581 | 15786 ft | 354 kts | 295° |
| 2026-05-07 13:01 | 41.96074 | 11.62674 | 16411 ft | 356 kts | 295° |
| 2026-05-07 13:01 | 41.97239 | 11.59720 | 17041 ft | 359 kts | 295° |
| 2026-05-07 13:01 | 41.98412 | 11.56746 | 17655 ft | 361 kts | 295° |
| 2026-05-07 13:01 | 41.99596 | 11.53740 | 18268 ft | 363 kts | 294° |
| 2026-05-07 13:02 | 42.00787 | 11.50709 | 18801 ft | 366 kts | 294° |
| 2026-05-07 13:02 | 42.01961 | 11.47715 | 19327 ft | 368 kts | 294° |
| 2026-05-07 13:02 | 42.03158 | 11.44659 | 19874 ft | 370 kts | 294° |
| 2026-05-07 13:02 | 42.04365 | 11.41572 | 20407 ft | 372 kts | 294° |
| 2026-05-07 13:03 | 42.05573 | 11.38479 | 20949 ft | 375 kts | 294° |
| 2026-05-07 13:03 | 42.06790 | 11.35365 | 21477 ft | 377 kts | 294° |
| 2026-05-07 13:03 | 42.08017 | 11.32224 | 22007 ft | 379 kts | 293° |
| 2026-05-07 13:03 | 42.09251 | 11.29069 | 22510 ft | 382 kts | 293° |
| 2026-05-07 13:04 | 42.10494 | 11.25885 | 23018 ft | 384 kts | 293° |
| 2026-05-07 13:04 | 42.11721 | 11.22734 | 23488 ft | 386 kts | 293° |
| 2026-05-07 13:04 | 42.12972 | 11.19518 | 23899 ft | 388 kts | 293° |
| 2026-05-07 13:04 | 42.14228 | 11.16283 | 24325 ft | 389 kts | 293° |
| 2026-05-07 13:05 | 42.15487 | 11.13033 | 24735 ft | 390 kts | 292° |
| 2026-05-07 13:05 | 42.16746 | 11.09783 | 25134 ft | 391 kts | 292° |
| 2026-05-07 13:05 | 42.18007 | 11.06524 | 25527 ft | 392 kts | 292° |
| 2026-05-07 13:05 | 42.19270 | 11.03253 | 25916 ft | 393 kts | 292° |
| 2026-05-07 13:06 | 42.20520 | 11.00019 | 26300 ft | 394 kts | 292° |
| 2026-05-07 13:06 | 42.21791 | 10.96723 | 26677 ft | 395 kts | 292° |
| 2026-05-07 13:06 | 42.23062 | 10.93430 | 27050 ft | 396 kts | 292° |
| 2026-05-07 13:06 | 42.24338 | 10.90114 | 27402 ft | 397 kts | 292° |
| 2026-05-07 13:07 | 42.25614 | 10.86794 | 27766 ft | 398 kts | 292° |
| 2026-05-07 13:07 | 42.26874 | 10.83507 | 28106 ft | 399 kts | 292° |
| 2026-05-07 13:07 | 42.28219 | 10.80204 | 28449 ft | 404 kts | 297° |
| 2026-05-07 13:07 | 42.29961 | 10.77169 | 28778 ft | 413 kts | 307° |
| 2026-05-07 13:08 | 42.32131 | 10.74546 | 29088 ft | 422 kts | 315° |
| 2026-05-07 13:08 | 42.34475 | 10.72133 | 29393 ft | 423 kts | 315° |
| 2026-05-07 13:08 | 42.36790 | 10.69734 | 29679 ft | 425 kts | 315° |
| 2026-05-07 13:08 | 42.39132 | 10.67299 | 29971 ft | 426 kts | 315° |
| 2026-05-07 13:09 | 42.41486 | 10.64851 | 30212 ft | 427 kts | 315° |
| 2026-05-07 13:09 | 42.43845 | 10.62395 | 30425 ft | 428 kts | 315° |
| 2026-05-07 13:09 | 42.46217 | 10.59923 | 30631 ft | 430 kts | 315° |
| 2026-05-07 13:09 | 42.48586 | 10.57447 | 30838 ft | 431 kts | 315° |
| 2026-05-07 13:10 | 42.50959 | 10.54965 | 31120 ft | 430 kts | 315° |
| 2026-05-07 13:10 | 42.53328 | 10.52486 | 31394 ft | 429 kts | 315° |
| 2026-05-07 13:10 | 42.55698 | 10.50008 | 31667 ft | 429 kts | 315° |
| 2026-05-07 13:10 | 42.58066 | 10.47531 | 31928 ft | 429 kts | 315° |
| 2026-05-07 13:11 | 42.60425 | 10.45059 | 32195 ft | 429 kts | 315° |
| 2026-05-07 13:11 | 42.62784 | 10.42584 | 32464 ft | 428 kts | 315° |
| 2026-05-07 13:11 | 42.65121 | 10.40131 | 32725 ft | 428 kts | 315° |
| 2026-05-07 13:11 | 42.67479 | 10.37656 | 32986 ft | 428 kts | 315° |
| 2026-05-07 13:12 | 42.69840 | 10.35172 | 33251 ft | 428 kts | 315° |
| 2026-05-07 13:12 | 42.72195 | 10.32689 | 33517 ft | 427 kts | 315° |
| 2026-05-07 13:12 | 42.74541 | 10.30209 | 33786 ft | 427 kts | 315° |
| 2026-05-07 13:12 | 42.76861 | 10.27753 | 34041 ft | 427 kts | 315° |
| 2026-05-07 13:13 | 42.79205 | 10.25266 | 34270 ft | 427 kts | 315° |
| 2026-05-07 13:13 | 42.81549 | 10.22780 | 34503 ft | 426 kts | 315° |
| 2026-05-07 13:13 | 42.83891 | 10.20298 | 34724 ft | 426 kts | 315° |
| 2026-05-07 13:13 | 42.86237 | 10.17812 | 34931 ft | 426 kts | 315° |
| 2026-05-07 13:14 | 42.88584 | 10.15326 | 35138 ft | 426 kts | 315° |
| 2026-05-07 13:14 | 42.90906 | 10.12864 | 35328 ft | 426 kts | 315° |
| 2026-05-07 13:14 | 42.93244 | 10.10383 | 35514 ft | 426 kts | 315° |
| 2026-05-07 13:14 | 42.95589 | 10.07889 | 35698 ft | 426 kts | 315° |
| 2026-05-07 13:15 | 42.97925 | 10.05398 | 35880 ft | 426 kts | 315° |
| 2026-05-07 13:15 | 43.00262 | 10.02899 | 35998 ft | 426 kts | 315° |
| 2026-05-07 13:15 | 43.04910 | 9.97933 | 36019 ft | 425 kts | 315° |
| 2026-05-07 13:16 | 43.09574 | 9.92942 | 36018 ft | 425 kts | 315° |
| 2026-05-07 13:16 | 43.14249 | 9.87930 | 36017 ft | 425 kts | 315° |
| 2026-05-07 13:17 | 43.18882 | 9.82949 | 36019 ft | 425 kts | 315° |
| 2026-05-07 13:17 | 43.23541 | 9.77934 | 36020 ft | 425 kts | 315° |
| 2026-05-07 13:18 | 43.28173 | 9.72944 | 36021 ft | 425 kts | 315° |
| 2026-05-07 13:18 | 43.32825 | 9.67914 | 36021 ft | 425 kts | 315° |
| 2026-05-07 13:19 | 43.37471 | 9.62877 | 36025 ft | 425 kts | 315° |
| 2026-05-07 13:19 | 43.42118 | 9.57828 | 36028 ft | 425 kts | 315° |
| 2026-05-07 13:20 | 43.46767 | 9.52779 | 36025 ft | 425 kts | 315° |
| 2026-05-07 13:20 | 43.51411 | 9.47712 | 36027 ft | 425 kts | 315° |
| 2026-05-07 13:21 | 43.56020 | 9.42664 | 36027 ft | 426 kts | 315° |
| 2026-05-07 13:21 | 43.60669 | 9.37582 | 36025 ft | 426 kts | 315° |
| 2026-05-07 13:22 | 43.65325 | 9.32491 | 36025 ft | 426 kts | 315° |
| 2026-05-07 13:22 | 43.69952 | 9.27410 | 36027 ft | 426 kts | 315° |
| 2026-05-07 13:23 | 43.74597 | 9.22296 | 36020 ft | 427 kts | 315° |
| 2026-05-07 13:23 | 43.79248 | 9.17157 | 36025 ft | 426 kts | 315° |
| 2026-05-07 13:24 | 43.83863 | 9.12057 | 36024 ft | 426 kts | 315° |
| 2026-05-07 13:24 | 43.88507 | 9.06922 | 36018 ft | 426 kts | 315° |
| 2026-05-07 13:25 | 43.93137 | 9.01772 | 36017 ft | 426 kts | 315° |
| 2026-05-07 13:25 | 43.97735 | 8.96655 | 36014 ft | 426 kts | 315° |
| 2026-05-07 13:26 | 44.02368 | 8.91504 | 36014 ft | 426 kts | 315° |
| 2026-05-07 13:26 | 44.06983 | 8.86344 | 36015 ft | 425 kts | 315° |
| 2026-05-07 13:27 | 44.11592 | 8.81175 | 36025 ft | 425 kts | 315° |
| 2026-05-07 13:27 | 44.16181 | 8.76025 | 36024 ft | 425 kts | 315° |
| 2026-05-07 13:28 | 44.20798 | 8.70843 | 36029 ft | 425 kts | 315° |
| 2026-05-07 13:28 | 44.25378 | 8.65683 | 36030 ft | 425 kts | 315° |
| 2026-05-07 13:29 | 44.29991 | 8.60490 | 36031 ft | 425 kts | 315° |
| 2026-05-07 13:29 | 44.34600 | 8.55283 | 36032 ft | 425 kts | 315° |
| 2026-05-07 13:30 | 44.39185 | 8.50090 | 36028 ft | 425 kts | 315° |
| 2026-05-07 13:30 | 44.43737 | 8.44804 | 36020 ft | 424 kts | 314° |
| 2026-05-07 13:31 | 44.48219 | 8.39423 | 36014 ft | 424 kts | 313° |
| 2026-05-07 13:31 | 44.52666 | 8.34079 | 35998 ft | 424 kts | 314° |
| 2026-05-07 13:32 | 44.57169 | 8.28712 | 35994 ft | 424 kts | 314° |
| 2026-05-07 13:32 | 44.61666 | 8.23346 | 35995 ft | 423 kts | 314° |
| 2026-05-07 13:33 | 44.66130 | 8.18014 | 35992 ft | 423 kts | 314° |
| 2026-05-07 13:33 | 44.70616 | 8.12638 | 35993 ft | 423 kts | 314° |
| 2026-05-07 13:34 | 44.77325 | 8.04568 | 35993 ft | 422 kts | 314° |
| 2026-05-07 13:35 | 44.81772 | 7.99202 | 35994 ft | 422 kts | 314° |
| 2026-05-07 13:35 | 44.86230 | 7.93817 | 35995 ft | 422 kts | 314° |
| 2026-05-07 13:36 | 44.90641 | 7.88433 | 35998 ft | 420 kts | 310° |
| 2026-05-07 13:36 | 44.94118 | 7.82005 | 36003 ft | 408 kts | 294° |
| 2026-05-07 13:37 | 44.96761 | 7.74912 | 36007 ft | 408 kts | 294° |
| 2026-05-07 13:37 | 44.99416 | 7.67818 | 36010 ft | 408 kts | 294° |
| 2026-05-07 13:38 | 45.02064 | 7.60718 | 36013 ft | 408 kts | 294° |
| 2026-05-07 13:38 | 45.04694 | 7.53642 | 36010 ft | 408 kts | 294° |
| 2026-05-07 13:39 | 45.07346 | 7.46511 | 36009 ft | 409 kts | 294° |
| 2026-05-07 13:39 | 45.09972 | 7.39421 | 36008 ft | 409 kts | 294° |
| 2026-05-07 13:40 | 45.12608 | 7.32268 | 36011 ft | 409 kts | 294° |
| 2026-05-07 13:40 | 45.15225 | 7.25144 | 36012 ft | 409 kts | 293° |
| 2026-05-07 13:41 | 45.17820 | 7.17956 | 36009 ft | 409 kts | 292° |
| 2026-05-07 13:41 | 45.20193 | 7.10645 | 35992 ft | 407 kts | 289° |
| 2026-05-07 13:42 | 45.22284 | 7.03178 | 35994 ft | 407 kts | 288° |
| 2026-05-07 13:42 | 45.24332 | 6.95744 | 35986 ft | 408 kts | 288° |
| 2026-05-07 13:43 | 45.26451 | 6.88267 | 35972 ft | 408 kts | 289° |
| 2026-05-07 13:43 | 45.28603 | 6.80797 | 35968 ft | 409 kts | 289° |
| 2026-05-07 13:44 | 45.30740 | 6.73323 | 35968 ft | 409 kts | 289° |
| 2026-05-07 13:44 | 45.32873 | 6.65815 | 35969 ft | 410 kts | 289° |
| 2026-05-07 13:45 | 45.35003 | 6.58307 | 35966 ft | 409 kts | 289° |
| 2026-05-07 13:45 | 45.37122 | 6.50793 | 35974 ft | 410 kts | 288° |
| 2026-05-07 13:46 | 45.39147 | 6.43290 | 35968 ft | 407 kts | 283° |
| 2026-05-07 13:46 | 45.40580 | 6.35502 | 35972 ft | 407 kts | 282° |
| 2026-05-07 13:47 | 45.41770 | 6.29010 | 35970 ft | 407 kts | 282° |
| 2026-05-07 13:47 | 45.43203 | 6.21192 | 35971 ft | 407 kts | 282° |
| 2026-05-07 13:48 | 45.44620 | 6.13405 | 35982 ft | 408 kts | 282° |
| 2026-05-07 13:48 | 45.46033 | 6.05574 | 35989 ft | 408 kts | 282° |
| 2026-05-07 13:49 | 45.47445 | 5.97725 | 35991 ft | 408 kts | 282° |
| 2026-05-07 13:49 | 45.48846 | 5.89941 | 35993 ft | 408 kts | 282° |
| 2026-05-07 13:50 | 45.50249 | 5.82091 | 35994 ft | 408 kts | 282° |
| 2026-05-07 13:50 | 45.51651 | 5.74226 | 35995 ft | 408 kts | 282° |
| 2026-05-07 13:51 | 45.53036 | 5.66415 | 35991 ft | 409 kts | 281° |
| 2026-05-07 13:51 | 45.54420 | 5.58554 | 35992 ft | 409 kts | 281° |
| 2026-05-07 13:52 | 45.55805 | 5.50673 | 35992 ft | 409 kts | 281° |
| 2026-05-07 13:52 | 45.57184 | 5.42786 | 35988 ft | 409 kts | 281° |
| 2026-05-07 13:53 | 45.58561 | 5.34894 | 35990 ft | 410 kts | 281° |
| 2026-05-07 13:53 | 45.59926 | 5.27023 | 36010 ft | 410 kts | 281° |
| 2026-05-07 13:54 | 45.61290 | 5.19099 | 36015 ft | 410 kts | 281° |
| 2026-05-07 13:54 | 45.62645 | 5.11225 | 36020 ft | 411 kts | 281° |
| 2026-05-07 13:55 | 45.64005 | 5.03283 | 36020 ft | 411 kts | 281° |
| 2026-05-07 13:55 | 45.65355 | 4.95373 | 36024 ft | 411 kts | 281° |
| 2026-05-07 13:56 | 45.66702 | 4.87405 | 36026 ft | 411 kts | 281° |
| 2026-05-07 13:56 | 45.68035 | 4.79485 | 36023 ft | 412 kts | 281° |
| 2026-05-07 13:57 | 45.69379 | 4.71504 | 36022 ft | 412 kts | 281° |
| 2026-05-07 13:57 | 45.70711 | 4.63526 | 36017 ft | 412 kts | 281° |
| 2026-05-07 13:58 | 45.72034 | 4.55576 | 36013 ft | 412 kts | 281° |
| 2026-05-07 13:58 | 45.73358 | 4.47582 | 36014 ft | 413 kts | 281° |
| 2026-05-07 13:59 | 45.74683 | 4.39572 | 36017 ft | 413 kts | 281° |
| 2026-05-07 13:59 | 45.75992 | 4.31608 | 36021 ft | 414 kts | 281° |
| 2026-05-07 14:00 | 45.77305 | 4.23565 | 36019 ft | 414 kts | 281° |
| 2026-05-07 14:00 | 45.78598 | 4.15573 | 36014 ft | 414 kts | 281° |
| 2026-05-07 14:01 | 45.79904 | 4.07532 | 36019 ft | 414 kts | 281° |
| 2026-05-07 14:01 | 45.81201 | 3.99466 | 36021 ft | 414 kts | 280° |
| 2026-05-07 14:02 | 45.82491 | 3.91409 | 36012 ft | 415 kts | 280° |
| 2026-05-07 14:02 | 45.83774 | 3.83378 | 36013 ft | 415 kts | 280° |
| 2026-05-07 14:03 | 45.85052 | 3.75289 | 36015 ft | 415 kts | 280° |
| 2026-05-07 14:03 | 45.86323 | 3.67245 | 36015 ft | 416 kts | 280° |
| 2026-05-07 14:04 | 45.87597 | 3.59141 | 36014 ft | 416 kts | 280° |
| 2026-05-07 14:04 | 45.88879 | 3.51027 | 36019 ft | 416 kts | 280° |
| 2026-05-07 14:05 | 45.90177 | 3.42951 | 36023 ft | 417 kts | 281° |
| 2026-05-07 14:05 | 45.91488 | 3.34827 | 36025 ft | 417 kts | 280° |
| 2026-05-07 14:06 | 45.92793 | 3.26681 | 36032 ft | 417 kts | 280° |
| 2026-05-07 14:06 | 45.94074 | 3.18586 | 36024 ft | 417 kts | 280° |
| 2026-05-07 14:07 | 45.95357 | 3.10451 | 36026 ft | 417 kts | 280° |
| 2026-05-07 14:07 | 45.96639 | 3.02299 | 36019 ft | 418 kts | 280° |
| 2026-05-07 14:08 | 45.97909 | 2.94199 | 36014 ft | 418 kts | 280° |
| 2026-05-07 14:08 | 45.99176 | 2.86020 | 36008 ft | 418 kts | 280° |
| 2026-05-07 14:09 | 46.01174 | 2.78144 | 36011 ft | 423 kts | 295° |
| 2026-05-07 14:09 | 46.03968 | 2.70718 | 36003 ft | 423 kts | 295° |
| 2026-05-07 14:10 | 46.06766 | 2.63243 | 36006 ft | 424 kts | 295° |
| 2026-05-07 14:10 | 46.09527 | 2.55783 | 36007 ft | 424 kts | 295° |
| 2026-05-07 14:11 | 46.12297 | 2.48278 | 36007 ft | 424 kts | 295° |
| 2026-05-07 14:11 | 46.15075 | 2.40750 | 36008 ft | 424 kts | 295° |
| 2026-05-07 14:12 | 46.17854 | 2.33219 | 36008 ft | 425 kts | 295° |
| 2026-05-07 14:12 | 46.20612 | 2.25720 | 36006 ft | 425 kts | 295° |
| 2026-05-07 14:13 | 46.23370 | 2.18158 | 36011 ft | 425 kts | 294° |
| 2026-05-07 14:13 | 46.26032 | 2.10525 | 36010 ft | 425 kts | 293° |
| 2026-05-07 14:14 | 46.28635 | 2.02891 | 36011 ft | 425 kts | 293° |
| 2026-05-07 14:14 | 46.31260 | 1.95209 | 36008 ft | 425 kts | 293° |
| 2026-05-07 14:15 | 46.33893 | 1.87531 | 36012 ft | 426 kts | 293° |
| 2026-05-07 14:15 | 46.36515 | 1.79878 | 36008 ft | 426 kts | 293° |
| 2026-05-07 14:16 | 46.39149 | 1.72160 | 36012 ft | 426 kts | 293° |
| 2026-05-07 14:16 | 46.41760 | 1.64490 | 36012 ft | 427 kts | 293° |
| 2026-05-07 14:17 | 46.44387 | 1.56756 | 36013 ft | 426 kts | 293° |
| 2026-05-07 14:17 | 46.46903 | 1.48964 | 36006 ft | 424 kts | 286° |
| 2026-05-07 14:18 | 46.48111 | 1.40653 | 35996 ft | 420 kts | 275° |
| 2026-05-07 14:18 | 46.48751 | 1.33844 | 35994 ft | 421 kts | 275° |
| 2026-05-07 14:18 | 46.49150 | 1.29623 | 35432 ft | 424 kts | 275° |
| 2026-05-07 14:19 | 46.49556 | 1.25328 | 34306 ft | 433 kts | 275° |
| 2026-05-07 14:19 | 46.49967 | 1.20973 | 33254 ft | 436 kts | 275° |
| 2026-05-07 14:19 | 46.50375 | 1.16657 | 32881 ft | 424 kts | 275° |
| 2026-05-07 14:19 | 46.50969 | 1.12546 | 32450 ft | 420 kts | 288° |
| 2026-05-07 14:20 | 46.52357 | 1.08812 | 31829 ft | 424 kts | 305° |
| 2026-05-07 14:20 | 46.54523 | 1.05876 | 31114 ft | 431 kts | 324° |
| 2026-05-07 14:20 | 46.57276 | 1.04093 | 30416 ft | 438 kts | 343° |
| 2026-05-07 14:20 | 46.60319 | 1.03661 | 29637 ft | 443 kts | 359° |
| 2026-05-07 14:21 | 46.63414 | 1.03778 | 28785 ft | 444 kts | 359° |
| 2026-05-07 14:21 | 46.66508 | 1.03921 | 27961 ft | 445 kts | 360° |
| 2026-05-07 14:21 | 46.69558 | 1.04067 | 27168 ft | 445 kts | 360° |
| 2026-05-07 14:21 | 46.72654 | 1.04213 | 26386 ft | 445 kts | 360° |
| 2026-05-07 14:22 | 46.75743 | 1.04350 | 25626 ft | 444 kts | 360° |
| 2026-05-07 14:22 | 46.78826 | 1.04481 | 24888 ft | 443 kts | 360° |
| 2026-05-07 14:22 | 46.81898 | 1.04608 | 24170 ft | 441 kts | 360° |
| 2026-05-07 14:22 | 46.84960 | 1.04734 | 23446 ft | 440 kts | 0° |
| 2026-05-07 14:23 | 46.88024 | 1.04863 | 22617 ft | 439 kts | 0° |
| 2026-05-07 14:23 | 46.91080 | 1.04994 | 21807 ft | 438 kts | 0° |
| 2026-05-07 14:23 | 46.94122 | 1.05127 | 21022 ft | 437 kts | 0° |
| 2026-05-07 14:23 | 46.97156 | 1.05256 | 20256 ft | 435 kts | 359° |
| 2026-05-07 14:24 | 47.00121 | 1.04836 | 19514 ft | 431 kts | 345° |
| 2026-05-07 14:24 | 47.02927 | 1.03329 | 18785 ft | 427 kts | 330° |
| 2026-05-07 14:24 | 47.05349 | 1.00862 | 18050 ft | 422 kts | 316° |
| 2026-05-07 14:24 | 47.07339 | 0.97736 | 17401 ft | 416 kts | 310° |
| 2026-05-07 14:25 | 47.09258 | 0.94591 | 16795 ft | 411 kts | 310° |
| 2026-05-07 14:25 | 47.11142 | 0.91517 | 16208 ft | 407 kts | 310° |
| 2026-05-07 14:25 | 47.13029 | 0.88440 | 15619 ft | 403 kts | 310° |
| 2026-05-07 14:25 | 47.14898 | 0.85394 | 15053 ft | 400 kts | 310° |
| 2026-05-07 14:26 | 47.16928 | 0.82616 | 14489 ft | 399 kts | 322° |
| 2026-05-07 14:26 | 47.19324 | 0.80600 | 14034 ft | 395 kts | 333° |
| 2026-05-07 14:26 | 47.21771 | 0.78883 | 13800 ft | 383 kts | 332° |
| 2026-05-07 14:26 | 47.24137 | 0.77202 | 13524 ft | 372 kts | 332° |
| 2026-05-07 14:27 | 47.26420 | 0.75538 | 13248 ft | 360 kts | 329° |
| 2026-05-07 14:27 | 47.28424 | 0.73423 | 12980 ft | 348 kts | 315° |
| 2026-05-07 14:27 | 47.30012 | 0.70831 | 12507 ft | 344 kts | 306° |
| 2026-05-07 14:27 | 47.31476 | 0.68044 | 12049 ft | 341 kts | 306° |
| 2026-05-07 14:28 | 47.32929 | 0.65271 | 11593 ft | 339 kts | 306° |
| 2026-05-07 14:28 | 47.34356 | 0.62545 | 11051 ft | 338 kts | 306° |
| 2026-05-07 14:28 | 47.35765 | 0.59768 | 10426 ft | 333 kts | 300° |
| 2026-05-07 14:28 | 47.36536 | 0.56655 | 9811 ft | 318 kts | 275° |
| 2026-05-07 14:29 | 47.36372 | 0.53484 | 9153 ft | 307 kts | 252° |
| 2026-05-07 14:29 | 47.35389 | 0.50755 | 8468 ft | 298 kts | 229° |
| 2026-05-07 14:29 | 47.33801 | 0.48852 | 7763 ft | 292 kts | 206° |
| 2026-05-07 14:29 | 47.31921 | 0.47906 | 7086 ft | 287 kts | 194° |
| 2026-05-07 14:30 | 47.29995 | 0.47152 | 6418 ft | 285 kts | 194° |
| 2026-05-07 14:30 | 47.28072 | 0.46624 | 5705 ft | 279 kts | 177° |
| 2026-05-07 14:30 | 47.26230 | 0.47339 | 5020 ft | 274 kts | 148° |
| 2026-05-07 14:30 | 47.24895 | 0.49267 | 4311 ft | 269 kts | 119° |
| 2026-05-07 14:31 | 47.24261 | 0.51829 | 3618 ft | 267 kts | 104° |
| 2026-05-07 14:31 | 47.23785 | 0.54418 | 3108 ft | 260 kts | 104° |
| 2026-05-07 14:31 | 47.23336 | 0.56870 | 2999 ft | 235 kts | 105° |
| 2026-05-07 14:31 | 47.22933 | 0.59094 | 3005 ft | 218 kts | 105° |
| 2026-05-07 14:32 | 47.22654 | 0.61261 | 2990 ft | 214 kts | 86° |
| 2026-05-07 14:32 | 47.23027 | 0.63261 | 3034 ft | 197 kts | 60° |
| 2026-05-07 14:32 | 47.23908 | 0.64723 | 3002 ft | 186 kts | 37° |
| 2026-05-07 14:32 | 47.25020 | 0.65473 | 2984 ft | 168 kts | 15° |
| 2026-05-07 14:33 | 47.26079 | 0.65884 | 2983 ft | 152 kts | 17° |
| 2026-05-07 14:33 | 47.27096 | 0.66288 | 2997 ft | 149 kts | 18° |
| 2026-05-07 14:33 | 47.28086 | 0.66684 | 2995 ft | 147 kts | 17° |
| 2026-05-07 14:33 | 47.29071 | 0.67078 | 2998 ft | 147 kts | 17° |
| 2026-05-07 14:34 | 47.30070 | 0.67479 | 2866 ft | 152 kts | 17° |
| 2026-05-07 14:34 | 47.31078 | 0.67884 | 2617 ft | 148 kts | 18° |
| 2026-05-07 14:34 | 47.32051 | 0.68275 | 2419 ft | 143 kts | 18° |
| 2026-05-07 14:34 | 47.33025 | 0.68664 | 2231 ft | 146 kts | 18° |
| 2026-05-07 14:35 | 47.34001 | 0.69054 | 2001 ft | 142 kts | 17° |
| 2026-05-07 14:35 | 47.34957 | 0.69438 | 1827 ft | 141 kts | 18° |
| 2026-05-07 14:35 | 47.35890 | 0.69813 | 1646 ft | 141 kts | 18° |
| 2026-05-07 14:35 | 47.36831 | 0.70191 | 1452 ft | 140 kts | 18° |
| 2026-05-07 14:36 | 47.37772 | 0.70568 | 1286 ft | 140 kts | 17° |
| 2026-05-07 14:36 | 47.38706 | 0.70944 | 1080 ft | 136 kts | 16° |
| 2026-05-07 14:36 | 47.39616 | 0.71309 | 904 ft | 134 kts | 17° |
| 2026-05-07 14:36 | 47.40516 | 0.71669 | 706 ft | 134 kts | 17° |
| 2026-05-07 14:37 | 47.41417 | 0.72029 | 535 ft | 134 kts | 17° |
| 2026-05-07 14:37 | 47.43102 | 0.72724 | 366 ft | 90 kts | 12° |
| 2026-05-07 14:37 | 47.43524 | 0.72891 | 372 ft | 54 kts | 17° |
| 2026-05-07 14:38 | 47.43863 | 0.73034 | 370 ft | 31 kts | 14° |
| 2026-05-07 14:38 | 47.43894 | 0.73047 | 370 ft | 1 kts | 29° |
| 2026-05-07 14:38 | 47.43904 | 0.73046 | 366 ft | 7 kts | 348° |
| 2026-05-07 14:38 | 47.43923 | 0.73022 | 365 ft | 4 kts | 291° |
| 2026-05-07 14:39 | 47.43910 | 0.72976 | 367 ft | 0 kts | 224° |
| 2026-05-07 14:39 | 47.43828 | 0.72981 | 368 ft | 21 kts | 182° |
| 2026-05-07 14:39 | 47.43613 | 0.72920 | 370 ft | 25 kts | 193° |
| 2026-05-07 14:39 | 47.43446 | 0.72855 | 371 ft | 26 kts | 195° |
| 2026-05-07 14:40 | 47.43274 | 0.72780 | 370 ft | 20 kts | 194° |
| 2026-05-07 14:40 | 47.43190 | 0.72716 | 366 ft | 21 kts | 239° |
| 2026-05-07 14:40 | 47.43196 | 0.72637 | 366 ft | 0 kts | 302° |
| 2026-05-07 14:40 | 47.43196 | 0.72636 | 363 ft | 0 kts | 299° |